Time;durP1;ratioP1;P1;durP2;ratioP2;P2;SDS_P1;SDS_P2;PMS_P1;PMS_P2;Temp;Humidity;BMP_temperature;BMP_pressure;BME280_temperature;BME280_humidity;BME280_pressure;Samples;Min_cycle;Max_cycle;Signal;HPM_P1;HPM_P2
2022/09/20 00:00:40;;;;;;;3.90;1.63;;;;;;;20.23;65.27;100863.47;2080934;28;20539;-75
2022/09/20 00:02:03;;;;;;;3.35;1.40;;;;;;;20.22;65.13;100857.22;2075743;28;20049;-75
2022/09/20 00:03:25;;;;;;;5.70;1.50;;;;;;;20.24;65.08;100851.84;2083871;28;20082;-75
2022/09/20 00:04:50;;;;;;;2.78;1.40;;;;;;;20.25;64.98;100853.59;2089255;28;20052;-75
2022/09/20 00:06:15;;;;;;;4.20;1.52;;;;;;;20.25;64.95;100843.75;2086664;28;20484;-75
2022/09/20 00:07:37;;;;;;;4.05;1.27;;;;;;;20.25;64.80;100850.91;2089244;28;20045;-75
2022/09/20 00:09:01;;;;;;;5.05;1.42;;;;;;;20.26;64.71;100841.97;2086263;28;20489;-75
2022/09/20 00:10:25;;;;;;;6.10;1.30;;;;;;;20.25;64.42;100845.56;2086818;28;20060;-74
2022/09/20 00:11:48;;;;;;;3.58;1.25;;;;;;;20.23;64.47;100842.03;2095221;28;20091;-75
2022/09/20 00:13:11;;;;;;;5.57;1.50;;;;;;;20.24;64.77;100841.09;2088951;28;20053;-74
2022/09/20 00:14:33;;;;;;;8.63;1.63;;;;;;;20.23;64.69;100834.88;2080967;28;20037;-74
2022/09/20 00:15:55;;;;;;;2.70;1.17;;;;;;;20.24;64.52;100827.69;2092361;28;20059;-74
2022/09/20 00:17:17;;;;;;;4.95;1.55;;;;;;;20.25;64.35;100834.84;2089068;28;20048;-73
2022/09/20 00:18:40;;;;;;;3.72;1.02;;;;;;;20.27;64.29;100835.69;2088780;28;20529;-74
2022/09/20 00:20:06;;;;;;;7.22;1.48;;;;;;;20.32;64.00;100830.22;2086425;28;20041;-74
2022/09/20 00:21:31;;;;;;;6.03;1.52;;;;;;;20.33;63.86;100835.59;2086786;28;20057;-74
2022/09/20 00:22:52;;;;;;;2.33;1.05;;;;;;;20.35;63.54;100831.03;2086685;28;20072;-74
2022/09/20 00:24:15;;;;;;;3.05;1.27;;;;;;;20.35;63.24;100824.81;2086465;28;20045;-75
2022/09/20 00:25:36;;;;;;;4.90;1.83;;;;;;;20.37;63.31;100825.66;2086521;28;20079;-75
2022/09/20 00:26:59;;;;;;;6.00;1.75;;;;;;;20.37;63.28;100820.28;2086141;28;20084;-74
2022/09/20 00:28:20;;;;;;;4.78;1.50;;;;;;;20.37;63.07;100821.16;2086447;28;20162;-75
2022/09/20 00:29:43;;;;;;;3.22;1.27;;;;;;;20.36;62.94;100824.75;2094646;28;20079;-75
2022/09/20 00:31:04;;;;;;;7.03;1.58;;;;;;;20.36;62.99;100819.41;2080857;28;20492;-76
2022/09/20 00:32:27;;;;;;;4.40;1.42;;;;;;;20.36;63.14;100822.09;2083645;28;20110;-75
2022/09/20 00:35:31;;;;;;;6.03;1.95;;;;;;;20.39;62.98;100821.13;2080825;28;20037;-75
2022/09/20 00:36:53;;;;;;;9.90;1.83;;;;;;;20.40;62.86;100818.44;2084372;28;20080;-75
2022/09/20 00:38:16;;;;;;;5.15;1.45;;;;;;;20.42;62.83;100818.38;2086064;28;20075;-75
2022/09/20 00:39:38;;;;;;;6.50;1.45;;;;;;;20.44;62.77;100813.84;2089082;28;20036;-75
2022/09/20 00:40:59;;;;;;;8.18;1.60;;;;;;;20.45;62.86;100813.84;2078042;28;20493;-75
2022/09/20 00:42:28;;;;;;;5.45;1.13;;;;;;;20.48;62.66;100810.22;2083459;28;20037;-75
2022/09/20 00:43:49;;;;;;;6.65;1.80;;;;;;;20.50;62.86;100813.72;2084270;28;20045;-75
2022/09/20 00:45:21;;;;;;;4.95;1.27;;;;;;;20.54;62.84;100808.25;2088806;28;20071;-74
2022/09/20 00:46:46;;;;;;;6.80;1.50;;;;;;;20.58;62.73;100806.38;2094419;28;20037;-75
2022/09/20 00:48:16;;;;;;;2.92;1.27;;;;;;;20.64;62.79;100811.56;2094487;28;20059;-74
2022/09/20 00:49:38;;;;;;;3.80;1.20;;;;;;;20.66;62.92;100809.75;2087292;28;20136;-76
2022/09/20 00:51:09;;;;;;;5.43;1.38;;;;;;;20.67;62.54;100807.03;2094361;28;20041;-75
2022/09/20 00:52:32;;;;;;;6.55;1.75;;;;;;;20.64;62.68;100807.09;2095642;28;20075;-75
2022/09/20 00:53:56;;;;;;;5.70;1.20;;;;;;;20.52;62.85;100802.03;2086380;28;20041;-75
2022/09/20 00:55:20;;;;;;;5.47;1.30;;;;;;;20.47;63.21;100805.75;2084227;28;20057;-75
2022/09/20 00:56:42;;;;;;;11.27;1.60;;;;;;;20.47;63.23;100803.97;2083957;28;20318;-75
2022/09/20 00:58:06;;;;;;;4.20;1.15;;;;;;;20.50;63.68;100802.97;2086298;28;20087;-75
2022/09/20 00:59:32;;;;;;;4.78;1.40;;;;;;;20.55;63.64;100801.06;2075521;28;20100;-75
2022/09/20 01:00:57;;;;;;;7.60;1.60;;;;;;;20.60;63.73;100804.53;2098968;28;20052;-75
2022/09/20 01:02:25;;;;;;;4.15;1.48;;;;;;;20.66;63.68;100804.38;2096916;28;20094;-75
2022/09/20 01:03:49;;;;;;;6.38;2.08;;;;;;;20.71;63.70;100805.13;2085798;28;20055;-75
2022/09/20 01:05:15;;;;;;;6.18;1.65;;;;;;;20.74;63.71;100799.72;2092091;28;20044;-75
2022/09/20 01:06:38;;;;;;;5.90;1.67;;;;;;;20.75;63.71;100795.19;2097146;28;20456;-75
2022/09/20 01:08:01;;;;;;;3.35;1.33;;;;;;;20.74;63.51;100802.41;2094284;28;20068;-75
2022/09/20 01:09:22;;;;;;;4.38;1.33;;;;;;;20.74;63.73;100796.13;2094344;28;20139;-74
2022/09/20 01:10:45;;;;;;;3.83;1.20;;;;;;;20.73;63.50;100802.41;2086024;28;20402;-74
2022/09/20 01:12:15;;;;;;;5.47;1.40;;;;;;;20.68;63.46;100794.47;2091628;28;20053;-74
2022/09/20 01:13:37;;;;;;;5.15;1.58;;;;;;;20.58;63.83;100793.84;2087092;28;20041;-74
2022/09/20 01:15:00;;;;;;;5.32;1.75;;;;;;;20.60;64.00;100797.38;2086114;28;20076;-74
2022/09/20 01:16:24;;;;;;;6.60;1.58;;;;;;;20.63;63.78;100796.41;2091953;28;20070;-75
2022/09/20 01:17:51;;;;;;;6.10;1.30;;;;;;;20.65;63.98;100792.75;2094358;28;20420;-74
2022/09/20 01:19:17;;;;;;;13.98;1.83;;;;;;;20.68;64.04;100789.09;2086297;28;20045;-74
2022/09/20 01:20:44;;;;;;;4.63;1.38;;;;;;;20.67;63.98;100790.94;2092972;28;20044;-75
2022/09/20 01:22:15;;;;;;;6.45;1.42;;;;;;;20.66;64.18;100793.66;2086431;28;20049;-73
2022/09/20 01:23:52;;;;;;;6.57;1.50;;;;;;;20.66;64.19;100791.84;2094022;28;20111;-73
2022/09/20 01:25:17;;;;;;;6.63;1.30;;;;;;;20.63;64.29;100789.22;2096889;28;20285;-74
2022/09/20 01:26:59;;;;;;;10.55;1.42;;;;;;;20.58;64.43;100791.16;2086186;28;20041;-73
2022/09/20 01:28:22;;;;;;;6.95;2.25;;;;;;;20.53;64.60;100787.72;2096699;28;20493;-73
2022/09/20 01:30:00;;;;;;;6.20;1.38;;;;;;;20.56;64.78;100782.25;2085883;28;20056;-73
2022/09/20 01:31:25;;;;;;;8.85;1.67;;;;;;;20.58;64.74;100785.78;2095976;28;20083;-73
2022/09/20 01:33:02;;;;;;;5.80;1.50;;;;;;;20.56;64.53;100782.25;2096700;28;20103;-73
2022/09/20 01:34:31;;;;;;;3.15;1.55;;;;;;;20.55;64.69;100784.97;2087675;28;20053;-73
2022/09/20 01:35:55;;;;;;;4.43;1.35;;;;;;;20.54;64.95;100780.53;2093533;28;20500;-73
2022/09/20 01:37:22;;;;;;;6.68;1.88;;;;;;;20.53;65.35;100778.78;2093840;28;20470;-73
2022/09/20 01:38:51;;;;;;;8.27;1.55;;;;;;;20.49;65.29;100772.59;2096517;28;20056;-73
2022/09/20 01:40:20;;;;;;;6.35;1.73;;;;;;;20.47;65.64;100779.81;2088558;28;20145;-73
2022/09/20 01:41:49;;;;;;;5.20;1.45;;;;;;;20.41;65.65;100779.97;2093388;28;20046;-73
2022/09/20 01:43:21;;;;;;;4.93;1.80;;;;;;;20.36;65.82;100776.50;2094598;28;20500;-73
2022/09/20 01:45:00;;;;;;;7.60;2.53;;;;;;;20.32;66.05;100777.47;2095185;28;20137;-73
2022/09/20 01:46:30;;;;;;;5.07;1.83;;;;;;;20.29;66.10;100774.84;2088200;28;20048;-73
2022/09/20 01:48:00;;;;;;;4.68;1.40;;;;;;;20.28;66.10;100781.16;2095113;28;20093;-74
2022/09/20 01:49:35;;;;;;;3.85;1.42;;;;;;;20.27;66.31;100779.38;2088119;28;20117;-74
2022/09/20 01:51:22;;;;;;;4.30;1.52;;;;;;;20.26;66.54;100772.25;2095369;28;20143;-73
2022/09/20 01:53:12;;;;;;;5.50;1.60;;;;;;;20.23;66.73;100767.84;2088395;28;20053;-73
2022/09/20 01:55:03;;;;;;;4.68;1.40;;;;;;;20.20;66.90;100767.94;2096794;28;20063;-74
2022/09/20 01:57:04;;;;;;;5.40;1.80;;;;;;;20.19;67.07;100766.16;2088424;28;20138;-73
2022/09/20 01:59:02;;;;;;;4.93;1.42;;;;;;;20.26;67.07;100772.25;2024735;29;20049;-73
2022/09/20 02:00:26;;;;;;;5.47;1.63;;;;;;;20.29;67.18;100761.44;2088451;28;20136;-73
2022/09/20 02:02:08;;;;;;;4.25;1.40;;;;;;;20.30;67.48;100758.72;2091594;28;20579;-74
2022/09/20 02:04:10;;;;;;;3.50;1.63;;;;;;;20.28;67.64;100765.06;2096356;28;20159;-74
2022/09/20 02:05:58;;;;;;;7.88;1.50;;;;;;;20.21;67.50;100766.13;2096666;28;20049;-74
2022/09/20 02:07:47;;;;;;;9.30;2.03;;;;;;;20.18;67.72;100760.81;2096699;28;20045;-74
2022/09/20 02:09:33;;;;;;;8.80;1.85;;;;;;;20.17;68.14;100762.63;2083483;28;20165;-73
2022/09/20 02:11:08;;;;;;;6.35;1.67;;;;;;;20.20;68.36;100767.03;2088344;28;20098;-75
2022/09/20 02:12:54;;;;;;;6.47;2.00;;;;;;;20.25;68.43;100765.13;2094611;28;20083;-74
2022/09/20 02:14:31;;;;;;;5.60;1.70;;;;;;;20.29;68.41;100766.81;2096444;28;20064;-74
2022/09/20 02:16:10;;;;;;;10.77;2.10;;;;;;;20.32;68.53;100761.38;2096061;28;20090;-74
2022/09/20 02:17:40;;;;;;;5.28;1.65;;;;;;;20.34;69.03;100766.75;2087945;28;20433;-74
2022/09/20 02:19:19;;;;;;;4.97;1.70;;;;;;;20.35;69.29;100776.56;2094339;28;20515;-75
2022/09/20 02:20:51;;;;;;;6.35;1.67;;;;;;;20.32;69.38;100772.09;2087863;28;20065;-75
2022/09/20 02:22:30;;;;;;;10.32;1.60;;;;;;;20.28;69.60;100775.78;2077568;28;20056;-75
2022/09/20 02:24:01;;;;;;;9.00;2.50;;;;;;;20.25;69.49;100770.47;2087525;28;20504;-75
2022/09/20 02:25:45;;;;;;;8.93;2.10;;;;;;;20.22;69.81;100773.22;2093760;28;20131;-75
2022/09/20 02:27:18;;;;;;;5.93;2.03;;;;;;;20.20;69.87;100777.75;2088085;28;20041;-75
2022/09/20 02:28:53;;;;;;;6.80;1.75;;;;;;;20.17;70.14;100772.47;2093810;28;20082;-75
2022/09/20 02:30:35;;;;;;;5.18;2.00;;;;;;;20.15;70.31;100777.00;2087487;28;20052;-74
2022/09/20 02:32:13;;;;;;;7.45;1.70;;;;;;;20.15;70.55;100779.69;2096522;28;20479;-74
2022/09/20 02:34:02;;;;;;;4.50;1.40;;;;;;;20.15;70.29;100774.31;2087481;28;20049;-74
2022/09/20 02:35:41;;;;;;;6.47;1.88;;;;;;;20.13;70.30;100777.03;2096341;28;20527;-74
2022/09/20 02:37:24;;;;;;;5.35;1.73;;;;;;;20.10;70.15;100779.75;2096039;28;20041;-74
2022/09/20 02:39:00;;;;;;;9.38;1.98;;;;;;;20.06;70.10;100778.09;2088248;28;20472;-74
2022/09/20 02:40:34;;;;;;;6.03;2.15;;;;;;;20.04;70.14;100777.22;2086974;28;20084;-75
2022/09/20 02:42:06;;;;;;;5.18;1.85;;;;;;;20.03;70.28;100775.47;2087205;28;20060;-74
2022/09/20 02:43:37;;;;;;;4.38;2.28;;;;;;;20.02;70.59;100778.19;2085413;28;20048;-74
2022/09/20 02:45:07;;;;;;;5.32;1.60;;;;;;;20.04;70.62;100765.63;2085473;28;20045;-75
2022/09/20 02:46:35;;;;;;;5.25;1.38;;;;;;;20.07;70.51;100768.25;2093526;28;20106;-74
2022/09/20 02:48:03;;;;;;;6.63;1.70;;;;;;;20.12;70.47;100766.34;2086038;28;20511;-73
2022/09/20 02:49:34;;;;;;;9.88;1.85;;;;;;;20.16;70.51;100770.69;2092645;28;20044;-74
2022/09/20 02:51:04;;;;;;;3.88;1.55;;;;;;;20.19;70.39;100770.63;2088248;28;20064;-74
2022/09/20 02:52:32;;;;;;;5.13;1.40;;;;;;;20.22;70.36;100773.22;2093114;28;20044;-74
2022/09/20 02:54:04;;;;;;;5.78;2.13;;;;;;;20.23;70.31;100772.31;2094199;28;20078;-74
2022/09/20 02:55:37;;;;;;;5.53;1.50;;;;;;;20.22;70.42;100768.75;2095002;28;20087;-74
2022/09/20 02:57:09;;;;;;;5.95;1.80;;;;;;;20.22;70.55;100766.06;2087083;28;20523;-74
2022/09/20 02:58:41;;;;;;;7.70;2.05;;;;;;;20.22;70.55;100770.53;2093512;28;20110;-74
2022/09/20 03:00:08;;;;;;;6.13;2.17;;;;;;;20.19;70.64;100768.84;2088002;28;20084;-74
2022/09/20 03:01:44;;;;;;;6.93;1.92;;;;;;;20.18;70.70;100763.50;2092097;28;20041;-74
2022/09/20 03:03:16;;;;;;;6.80;1.60;;;;;;;20.18;71.14;100760.81;2096378;28;20518;-75
2022/09/20 03:04:43;;;;;;;;;;;;;;;20.14;71.32;100761.84;2095428;28;20496;-75
2022/09/20 03:06:13;;;;;;;5.82;1.85;;;;;;;20.14;71.42;100760.03;2077908;28;20015;-74
2022/09/20 03:07:54;;;;;;;7.20;1.92;;;;;;;20.14;71.56;100761.84;2083449;28;20512;-75
2022/09/20 03:09:29;;;;;;;8.50;1.95;;;;;;;20.11;71.73;100760.09;2087801;28;20148;-76
2022/09/20 03:10:58;;;;;;;3.67;1.40;;;;;;;20.07;71.63;100762.88;2094593;28;20508;-75
2022/09/20 03:12:32;;;;;;;5.85;1.80;;;;;;;20.03;71.54;100763.84;2094801;28;20083;-75
2022/09/20 03:14:07;;;;;;;4.10;1.65;;;;;;;19.99;71.59;100764.84;2087117;28;20045;-75
2022/09/20 03:15:37;;;;;;;7.90;2.03;;;;;;;19.97;71.81;100766.69;2087568;28;20160;-73
2022/09/20 03:17:12;;;;;;;5.70;1.70;;;;;;;19.96;71.98;100765.78;2093251;28;20049;-74
2022/09/20 03:18:42;;;;;;;7.60;1.70;;;;;;;19.96;72.18;100772.94;2086871;28;20049;-74
2022/09/20 03:20:18;;;;;;;5.78;1.70;;;;;;;19.96;72.34;100772.94;2093481;28;20056;-74
2022/09/20 03:21:51;;;;;;;4.65;1.80;;;;;;;19.94;72.33;100769.44;2087047;28;20128;-74
2022/09/20 03:23:29;;;;;;;9.82;2.17;;;;;;;19.92;72.62;100774.84;2085890;28;20075;-75
2022/09/20 03:25:06;;;;;;;4.10;1.60;;;;;;;19.89;72.46;100770.41;2087410;28;20052;-74
2022/09/20 03:26:41;;;;;;;9.30;2.38;;;;;;;19.88;72.63;100775.84;2094846;28;20109;-74
2022/09/20 03:28:34;;;;;;;7.55;3.25;;;;;;;19.87;72.46;100768.69;2080471;28;20045;-75
2022/09/20 03:30:15;;;;;;;4.60;1.48;;;;;;;19.88;72.46;100776.72;2097661;28;20563;-74
2022/09/20 03:31:57;;;;;;;5.20;1.90;;;;;;;19.88;72.25;100778.50;2089369;28;20119;-75
2022/09/20 03:33:27;;;;;;;8.15;1.92;;;;;;;19.87;72.45;100777.63;2097873;28;20543;-74
2022/09/20 03:35:01;;;;;;;5.55;1.58;;;;;;;19.87;72.59;100776.75;2089653;28;20053;-74
2022/09/20 03:36:50;;;;;;;7.55;2.15;;;;;;;19.85;73.01;100778.56;2079610;28;20041;-73
2022/09/20 03:38:33;;;;;;;9.90;2.58;;;;;;;19.85;73.14;100778.56;2097624;28;20056;-75
2022/09/20 03:40:37;;;;;;;6.55;1.77;;;;;;;19.86;72.99;100781.22;2089282;28;20049;-74
2022/09/20 03:42:15;;;;;;;3.72;1.55;;;;;;;19.87;73.06;100782.97;2064340;28;20141;-74
2022/09/20 03:43:53;;;;;;;6.75;1.88;;;;;;;19.90;73.08;100788.25;2096720;28;20478;-75
2022/09/20 03:45:35;;;;;;;10.30;1.90;;;;;;;19.89;73.07;100788.28;2097381;28;20080;-74
2022/09/20 03:47:12;;;;;;;5.40;2.28;;;;;;;19.88;72.90;100797.25;2097760;28;20052;-74
2022/09/20 03:49:03;;;;;;;7.80;2.08;;;;;;;19.87;73.08;100796.38;2096497;28;20048;-74
2022/09/20 03:50:57;;;;;;;6.38;2.05;;;;;;;19.88;73.04;100798.16;2096954;28;20037;-74
2022/09/20 03:52:41;;;;;;;7.45;1.88;;;;;;;19.94;72.90;100798.91;2093048;28;20099;-74
2022/09/20 03:54:35;;;;;;;4.03;1.63;;;;;;;19.99;72.80;100805.06;2089418;28;20049;-74
2022/09/20 03:56:12;;;;;;;9.80;2.35;;;;;;;20.02;72.85;100802.31;2089345;28;20053;-74
2022/09/20 03:58:06;;;;;;;8.07;1.88;;;;;;;20.07;72.89;100795.06;2096824;28;20098;-74
2022/09/20 03:59:43;;;;;;;5.97;2.10;;;;;;;20.07;72.97;100797.72;2097482;28;20128;-74
2022/09/20 04:01:39;;;;;;;10.25;2.15;;;;;;;20.06;72.92;100796.84;2096880;28;20519;-74
2022/09/20 04:03:14;;;;;;;4.25;1.65;;;;;;;20.05;73.02;100802.22;2097385;28;20068;-75
2022/09/20 04:04:42;;;;;;;5.32;2.20;;;;;;;20.03;73.05;100796.00;2096151;28;20109;-75
2022/09/20 04:06:29;;;;;;;4.53;1.80;;;;;;;20.00;73.27;100801.47;2079152;28;20053;-74
2022/09/20 04:08:02;;;;;;;8.15;1.90;;;;;;;19.98;73.38;100801.50;2097395;28;20041;-74
2022/09/20 04:10:13;;;;;;;4.32;1.42;;;;;;;19.95;73.61;100809.63;2087758;28;20103;-75
2022/09/20 04:11:44;;;;;;;8.00;2.13;;;;;;;19.97;73.80;100812.22;2055865;28;20042;-75
2022/09/20 04:13:25;;;;;;;6.15;2.60;;;;;;;20.03;73.97;100815.66;2060660;28;20066;-74
2022/09/20 04:14:54;;;;;;;6.38;2.20;;;;;;;20.13;73.98;100813.69;2089028;28;20399;-75
2022/09/20 04:16:30;;;;;;;6.53;1.92;;;;;;;20.20;73.51;100818.88;2087554;28;20045;-75
2022/09/20 04:18:01;;;;;;;6.05;1.75;;;;;;;20.24;73.43;100811.63;2095565;28;20036;-74
2022/09/20 04:19:28;;;;;;;5.47;2.00;;;;;;;20.28;73.24;100819.53;2095728;28;20048;-74
2022/09/20 04:20:57;;;;;;;8.70;2.03;;;;;;;20.31;73.28;100823.97;2087239;28;20048;-75
2022/09/20 04:22:21;;;;;;;7.43;1.90;;;;;;;20.35;73.32;100816.78;2093787;28;20143;-74
2022/09/20 04:23:51;;;;;;;6.53;2.03;;;;;;;20.41;73.24;100830.03;2078291;28;20076;-75
2022/09/20 04:25:18;;;;;;;7.50;1.75;;;;;;;20.44;73.35;100828.16;2092025;28;20175;-75
2022/09/20 04:26:45;;;;;;;7.78;2.00;;;;;;;20.49;73.30;100814.63;2095254;28;20041;-75
2022/09/20 04:28:13;;;;;;;6.10;1.90;;;;;;;20.53;73.32;100814.53;2095262;28;20143;-75
2022/09/20 04:29:43;;;;;;;6.93;2.05;;;;;;;20.61;73.02;100825.94;2087293;28;20385;-74
2022/09/20 04:31:17;;;;;;;8.45;1.50;;;;;;;20.70;72.89;100827.53;2094106;28;20135;-75
2022/09/20 04:32:44;;;;;;;7.32;2.05;;;;;;;20.78;72.64;100830.00;2087784;28;20040;-75
2022/09/20 04:34:15;;;;;;;5.80;1.83;;;;;;;20.85;72.74;100823.56;2093222;28;20246;-75
2022/09/20 04:37:31;;;;;;;5.47;1.65;;;;;;;20.82;72.64;100829.88;2097318;28;20056;-76
2022/09/20 04:39:02;;;;;;;6.72;1.90;;;;;;;20.79;72.65;100827.31;2097116;28;20052;-76
2022/09/20 04:40:38;;;;;;;4.32;1.48;;;;;;;20.75;72.62;100828.28;2095744;28;20080;-76
2022/09/20 04:42:29;;;;;;;6.35;1.98;;;;;;;20.69;72.74;100813.22;2088330;28;20089;-74
2022/09/20 04:44:27;;;;;;;5.95;1.58;;;;;;;20.65;72.93;100818.72;2097067;28;20068;-74
2022/09/20 04:46:21;;;;;;;8.48;2.03;;;;;;;20.64;73.09;100808.91;2097195;28;20036;-75
2022/09/20 04:48:36;;;;;;;5.35;1.70;;;;;;;20.68;73.24;100816.81;2088879;28;20099;-74
2022/09/20 04:50:31;;;;;;;4.68;1.75;;;;;;;20.80;73.19;100810.28;2088989;28;20045;-74
2022/09/20 04:52:27;;;;;;;7.40;1.80;;;;;;;20.95;72.68;100811.66;2097227;28;20056;-75
2022/09/20 04:54:26;;;;;;;6.00;1.92;;;;;;;21.12;72.44;100820.16;2096792;28;20041;-74
2022/09/20 04:55:56;;;;;;;6.55;1.75;;;;;;;21.25;72.38;100816.25;2088871;28;20045;-74
2022/09/20 04:57:49;;;;;;;8.68;2.72;;;;;;;21.30;72.38;100814.31;2095443;28;20060;-74
2022/09/20 04:59:25;;;;;;;4.38;2.08;;;;;;;21.30;72.23;100811.66;2088768;28;20562;-74
2022/09/20 05:01:18;;;;;;;6.80;1.80;;;;;;;21.34;72.05;100821.38;2095503;28;20089;-74
2022/09/20 05:03:10;;;;;;;13.85;3.05;;;;;;;21.42;71.83;100818.47;2088676;28;20143;-74
2022/09/20 05:05:05;;;;;;;9.15;1.63;;;;;;;21.45;71.54;100819.28;2097014;28;20045;-74
2022/09/20 05:07:09;;;;;;;8.38;1.92;;;;;;;21.46;71.42;100820.16;2088787;28;20071;-75
2022/09/20 05:09:18;;;;;;;5.78;2.00;;;;;;;21.53;71.35;100821.72;2068559;28;20054;-75
2022/09/20 05:11:08;;;;;;;9.73;1.85;;;;;;;21.70;71.29;100813.19;2096862;28;20056;-74
2022/09/20 05:12:45;;;;;;;6.18;2.17;;;;;;;21.93;71.48;100809.81;2088632;28;20051;-75
2022/09/20 05:14:34;;;;;;;8.50;1.85;;;;;;;22.08;71.09;100812.94;2095188;28;20056;-75
2022/09/20 05:16:03;;;;;;;3.75;1.33;;;;;;;22.24;70.74;100805.28;2088592;28;20049;-75
2022/09/20 05:17:38;;;;;;;4.25;1.50;;;;;;;22.41;70.22;100804.75;2085276;28;20121;-74
2022/09/20 05:19:22;;;;;;;4.80;1.75;;;;;;;22.54;69.72;100806.09;2086691;28;20044;-76
2022/09/20 05:21:05;;;;;;;3.83;1.48;;;;;;;22.70;69.46;100804.69;2096808;28;20119;-74
2022/09/20 05:23:01;;;;;;;7.30;1.25;;;;;;;22.83;69.01;100810.56;2096798;28;20040;-75
2022/09/20 05:24:38;;;;;;;8.18;1.80;;;;;;;22.90;68.94;100810.31;2096681;28;20405;-74
2022/09/20 05:26:11;;;;;;;9.35;1.70;;;;;;;22.99;68.78;100806.38;2088308;28;20467;-75
2022/09/20 05:27:43;;;;;;;4.47;1.50;;;;;;;23.19;69.31;100803.00;2094273;28;20040;-74
2022/09/20 05:29:11;;;;;;;;;;;;;;;23.37;68.93;100800.50;2095613;28;20056;-75
2022/09/20 05:30:38;;;;;;;5.78;1.50;;;;;;;23.62;68.28;100799.66;2095030;28;19921;-75
2022/09/20 05:32:07;;;;;;;3.53;1.30;;;;;;;23.70;67.33;100782.22;2086901;28;20049;-75
2022/09/20 05:33:38;;;;;;;4.60;1.08;;;;;;;23.73;67.40;100789.34;2086586;28;20103;-75
2022/09/20 05:35:07;;;;;;;5.40;1.20;;;;;;;23.92;67.23;100789.50;2093988;28;20080;-76
2022/09/20 05:36:39;;;;;;;4.78;1.33;;;;;;;24.21;67.13;100786.59;2095001;28;20425;-75
2022/09/20 05:38:10;;;;;;;4.03;1.20;;;;;;;24.50;66.72;100782.66;2088729;28;20048;-75
2022/09/20 05:39:42;;;;;;;4.93;1.98;;;;;;;24.79;66.15;100784.16;2093637;28;20040;-75
2022/09/20 05:41:14;;;;;;;7.80;1.52;;;;;;;24.93;65.21;100781.78;2086968;28;20113;-76
2022/09/20 05:42:43;;;;;;;;;;;;;;;24.91;64.76;100772.84;2086859;28;20359;-76
2022/09/20 05:44:16;;;;;;;2.42;1.05;;;;;;;24.82;65.18;100784.00;2093093;28;19927;-76
2022/09/20 05:46:01;;;;;;;3.67;1.00;;;;;;;24.73;65.57;100779.03;2087125;28;20071;-76
2022/09/20 05:47:35;;;;;;;7.63;1.25;;;;;;;24.80;66.02;100783.22;2088367;28;20094;-76
2022/09/20 05:49:11;;;;;;;5.88;1.20;;;;;;;25.00;65.84;100781.47;2087402;28;20131;-76
2022/09/20 05:50:48;;;;;;;6.65;1.17;;;;;;;25.15;65.26;100787.09;2086960;28;20397;-76
2022/09/20 05:52:29;;;;;;;5.03;1.17;;;;;;;25.11;64.57;100788.19;2095308;28;20052;-77
2022/09/20 05:54:09;;;;;;;4.65;1.45;;;;;;;24.97;64.41;100786.09;2088196;28;20045;-76
2022/09/20 05:55:51;;;;;;;2.90;0.70;;;;;;;24.86;64.04;100796.47;2087701;28;20048;-76
2022/09/20 05:57:28;;;;;;;8.75;1.35;;;;;;;24.83;64.78;100791.19;2096486;28;20059;-75
2022/09/20 05:59:13;;;;;;;6.25;0.90;;;;;;;25.06;64.67;100788.41;2095994;28;20049;-75
2022/09/20 06:00:45;;;;;;;2.53;0.70;;;;;;;25.40;64.54;100785.09;2088207;28;20041;-75
2022/09/20 06:02:19;;;;;;;4.10;1.00;;;;;;;25.77;63.97;100793.28;2085694;28;20053;-75
2022/09/20 06:03:47;;;;;;;2.85;0.90;;;;;;;26.05;63.76;100798.28;2085927;28;20044;-75
2022/09/20 06:05:16;;;;;;;4.18;0.73;;;;;;;26.25;63.41;100802.78;2084767;28;20045;-75
2022/09/20 06:06:50;;;;;;;7.72;1.08;;;;;;;26.37;62.90;100799.47;2093209;28;20560;-75
2022/09/20 06:08:30;;;;;;;5.72;1.92;;;;;;;26.29;62.38;100800.78;2088091;28;20069;-76
2022/09/20 06:10:25;;;;;;;6.70;1.13;;;;;;;26.23;62.38;100810.03;2088376;28;20393;-76
2022/09/20 06:12:11;;;;;;;3.20;0.90;;;;;;;26.00;61.68;100803.00;2096790;28;20103;-76
2022/09/20 06:14:08;;;;;;;2.85;0.80;;;;;;;25.80;61.69;100803.94;2096424;28;20123;-76
2022/09/20 06:15:38;;;;;;;2.67;0.80;;;;;;;25.89;61.75;100808.06;2088434;28;20064;-75
2022/09/20 06:17:14;;;;;;;5.40;1.00;;;;;;;25.97;61.66;100810.41;2093166;28;20052;-76
2022/09/20 06:18:43;;;;;;;7.30;1.20;;;;;;;25.84;61.21;100815.53;2095494;28;20046;-75
2022/09/20 06:20:19;;;;;;;4.15;1.05;;;;;;;25.87;61.62;100812.66;2088476;28;20053;-75
2022/09/20 06:21:50;;;;;;;4.05;1.00;;;;;;;26.22;61.20;100821.81;2095140;28;20491;-74
2022/09/20 06:23:13;;;;;;;5.05;0.95;;;;;;;26.51;60.71;100815.03;2094934;28;20053;-74
2022/09/20 06:24:41;;;;;;;1.85;0.57;;;;;;;26.79;59.73;100809.97;2077637;28;20080;-75
2022/09/20 06:26:10;;;;;;;4.03;1.10;;;;;;;27.07;59.16;100814.88;2091646;28;20565;-75
2022/09/20 06:27:38;;;;;;;3.75;0.98;;;;;;;27.42;58.76;100807.63;2094754;28;20143;-75
2022/09/20 06:29:06;;;;;;;3.13;0.60;;;;;;;27.81;57.77;100809.16;2087955;28;20045;-74
2022/09/20 06:30:32;;;;;;;1.77;0.80;;;;;;;28.11;57.14;100819.19;2092803;28;20106;-74
2022/09/20 06:31:53;;;;;;;7.10;1.58;;;;;;;28.39;56.42;100813.09;2087863;28;20114;-74
2022/09/20 06:33:19;;;;;;;4.70;0.75;;;;;;;28.55;55.58;100808.50;2085580;28;20057;-75
2022/09/20 06:34:41;;;;;;;5.53;0.80;;;;;;;28.65;55.70;100810.72;2084029;28;20037;-74
2022/09/20 06:41:29;;;;;;;6.53;1.75;;;;;;;29.17;52.74;100822.97;2088336;28;20045;-75
2022/09/20 06:42:53;;;;;;;8.18;1.38;;;;;;;29.29;52.06;100821.34;2084918;28;20052;-75
2022/09/20 06:44:18;;;;;;;7.00;1.13;;;;;;;29.42;51.14;100825.09;2087837;28;20328;-75
2022/09/20 06:45:40;;;;;;;8.13;0.98;;;;;;;29.43;51.15;100829.56;2077023;28;20050;-75
2022/09/20 06:47:06;;;;;;;4.85;0.98;;;;;;;29.56;50.63;100832.41;2074905;28;20104;-75
2022/09/20 06:48:30;;;;;;;4.47;1.00;;;;;;;29.73;50.05;100826.81;2083899;28;20155;-75
2022/09/20 06:49:53;;;;;;;3.42;1.85;;;;;;;29.80;49.74;100824.56;2094037;28;20044;-76
2022/09/20 06:51:16;;;;;;;3.95;0.80;;;;;;;29.93;49.21;100811.97;2088375;28;20060;-76
2022/09/20 06:52:43;;;;;;;7.10;1.00;;;;;;;30.08;48.88;100833.63;2093483;28;20144;-76
2022/09/20 06:54:10;;;;;;;3.00;0.80;;;;;;;30.15;48.60;100833.22;2088124;28;20654;-76
2022/09/20 06:55:38;;;;;;;7.97;1.02;;;;;;;30.02;48.50;100836.75;2094670;28;20045;-75
2022/09/20 06:57:03;;;;;;;4.43;0.90;;;;;;;29.75;48.48;100841.19;2088012;28;20049;-76
2022/09/20 06:58:27;;;;;;;3.10;1.08;;;;;;;29.48;48.92;100840.16;2094100;28;20087;-76
2022/09/20 06:59:51;;;;;;;3.60;1.38;;;;;;;29.16;48.97;100842.97;2079817;28;20596;-76
2022/09/20 07:01:14;;;;;;;7.63;0.90;;;;;;;28.83;49.28;100843.16;2074946;28;20041;-76
2022/09/20 07:02:36;;;;;;;3.88;0.82;;;;;;;28.56;49.53;100847.44;2092782;28;20575;-76
2022/09/20 07:03:59;;;;;;;4.15;0.88;;;;;;;28.49;49.99;100849.63;2089463;28;20110;-76
2022/09/20 07:05:23;;;;;;;4.05;0.88;;;;;;;28.67;50.35;100849.53;2095117;28;20041;-76
2022/09/20 07:06:45;;;;;;;2.80;0.65;;;;;;;29.00;50.14;100853.03;2089302;28;20087;-76
2022/09/20 07:08:07;;;;;;;7.75;1.00;;;;;;;29.35;49.46;100859.09;2095370;28;20537;-75
2022/09/20 07:09:31;;;;;;;6.40;0.60;;;;;;;29.57;49.04;100858.66;2081265;28;20127;-75
2022/09/20 07:10:54;;;;;;;3.55;0.90;;;;;;;29.82;48.35;100858.88;2084896;28;20516;-75
2022/09/20 07:12:17;;;;;;;4.18;0.95;;;;;;;29.92;47.54;100856.50;2079074;28;20501;-75
2022/09/20 07:13:39;;;;;;;3.35;0.80;;;;;;;29.79;47.35;100859.09;2092256;28;20045;-75
2022/09/20 07:15:05;;;;;;;3.70;0.70;;;;;;;29.76;47.68;100862.00;2089562;28;20092;-76
2022/09/20 07:16:27;;;;;;;2.70;0.68;;;;;;;29.62;47.67;100857.41;2087379;28;20041;-76
2022/09/20 07:17:49;;;;;;;4.55;0.88;;;;;;;29.43;47.96;100859.50;2081194;28;20080;-75
2022/09/20 07:19:12;;;;;;;3.70;1.20;;;;;;;29.50;48.43;100868.16;2084154;28;20052;-75
2022/09/20 07:20:35;;;;;;;4.90;0.90;;;;;;;29.58;48.35;100858.56;2086876;28;20029;-75
2022/09/20 07:21:58;;;;;;;3.80;0.73;;;;;;;29.78;48.15;100865.50;2086971;28;20135;-75
2022/09/20 07:23:20;;;;;;;3.10;0.90;;;;;;;29.87;48.08;100864.91;2087023;28;20061;-75